sensor_id;sensor_type;location;lat;lon;timestamp;P1;durP1;ratioP1;P2;durP2;ratioP2
64459;SDS011;50828;53.756;21.140;2023-02-28T00:01:53;169.00;;;48.00;;
64459;SDS011;50828;53.756;21.140;2023-02-28T00:07:02;170.00;;;48.70;;
64459;SDS011;50828;53.756;21.140;2023-02-28T00:12:10;139.20;;;39.10;;
64459;SDS011;50828;53.756;21.140;2023-02-28T00:17:19;93.00;;;27.10;;
64459;SDS011;50828;53.756;21.140;2023-02-28T00:22:28;105.00;;;26.70;;
64459;SDS011;50828;53.756;21.140;2023-02-28T00:27:37;88.90;;;25.40;;
64459;SDS011;50828;53.756;21.140;2023-02-28T00:32:46;86.40;;;25.70;;
64459;SDS011;50828;53.756;21.140;2023-02-28T00:37:54;99.80;;;29.80;;
64459;SDS011;50828;53.756;21.140;2023-02-28T00:43:03;95.40;;;29.40;;
64459;SDS011;50828;53.756;21.140;2023-02-28T00:48:11;86.40;;;23.90;;
64459;SDS011;50828;53.756;21.140;2023-02-28T00:53:22;51.60;;;17.60;;
64459;SDS011;50828;53.756;21.140;2023-02-28T00:58:34;50.80;;;14.80;;
64459;SDS011;50828;53.756;21.140;2023-02-28T01:03:42;49.40;;;14.70;;
64459;SDS011;50828;53.756;21.140;2023-02-28T01:08:51;44.30;;;13.80;;
64459;SDS011;50828;53.756;21.140;2023-02-28T01:13:58;39.20;;;12.90;;
64459;SDS011;50828;53.756;21.140;2023-02-28T01:19:09;39.60;;;13.10;;
64459;SDS011;50828;53.756;21.140;2023-02-28T01:24:16;42.40;;;13.20;;
64459;SDS011;50828;53.756;21.140;2023-02-28T01:29:24;41.90;;;13.90;;
64459;SDS011;50828;53.756;21.140;2023-02-28T01:34:32;35.20;;;11.80;;
64459;SDS011;50828;53.756;21.140;2023-02-28T01:39:40;36.10;;;11.60;;
64459;SDS011;50828;53.756;21.140;2023-02-28T01:45:02;35.30;;;11.30;;
64459;SDS011;50828;53.756;21.140;2023-02-28T01:50:14;37.80;;;11.00;;
64459;SDS011;50828;53.756;21.140;2023-02-28T01:55:26;38.10;;;12.10;;
64459;SDS011;50828;53.756;21.140;2023-02-28T02:00:37;44.40;;;13.30;;
64459;SDS011;50828;53.756;21.140;2023-02-28T02:05:47;32.70;;;11.20;;
64459;SDS011;50828;53.756;21.140;2023-02-28T02:10:55;36.00;;;10.90;;
64459;SDS011;50828;53.756;21.140;2023-02-28T02:16:07;27.60;;;10.00;;
64459;SDS011;50828;53.756;21.140;2023-02-28T02:21:34;29.70;;;9.90;;
64459;SDS011;50828;53.756;21.140;2023-02-28T02:32:59;32.80;;;11.50;;
64459;SDS011;50828;53.756;21.140;2023-02-28T02:38:27;32.90;;;9.90;;
64459;SDS011;50828;53.756;21.140;2023-02-28T02:43:43;25.70;;;10.00;;
64459;SDS011;50828;53.756;21.140;2023-02-28T02:48:56;21.50;;;9.40;;
64459;SDS011;50828;53.756;21.140;2023-02-28T02:54:08;23.90;;;8.60;;
64459;SDS011;50828;53.756;21.140;2023-02-28T02:59:20;21.20;;;8.40;;
64459;SDS011;50828;53.756;21.140;2023-02-28T03:04:30;21.20;;;8.00;;
64459;SDS011;50828;53.756;21.140;2023-02-28T03:09:51;24.20;;;7.80;;
64459;SDS011;50828;53.756;21.140;2023-02-28T03:15:04;28.10;;;10.80;;
64459;SDS011;50828;53.756;21.140;2023-02-28T03:20:23;30.40;;;10.60;;
64459;SDS011;50828;53.756;21.140;2023-02-28T03:25:42;20.50;;;8.70;;
64459;SDS011;50828;53.756;21.140;2023-02-28T03:31:00;21.40;;;8.90;;
64459;SDS011;50828;53.756;21.140;2023-02-28T03:36:15;26.50;;;8.90;;
64459;SDS011;50828;53.756;21.140;2023-02-28T03:41:30;19.90;;;7.50;;
64459;SDS011;50828;53.756;21.140;2023-02-28T03:46:44;22.40;;;7.90;;
64459;SDS011;50828;53.756;21.140;2023-02-28T03:51:55;19.90;;;8.10;;
64459;SDS011;50828;53.756;21.140;2023-02-28T03:57:07;23.50;;;8.70;;
64459;SDS011;50828;53.756;21.140;2023-02-28T04:02:21;32.10;;;11.40;;
64459;SDS011;50828;53.756;21.140;2023-02-28T04:07:30;26.20;;;10.10;;
64459;SDS011;50828;53.756;21.140;2023-02-28T04:12:38;23.30;;;9.40;;
64459;SDS011;50828;53.756;21.140;2023-02-28T04:17:47;35.60;;;9.70;;
64459;SDS011;50828;53.756;21.140;2023-02-28T04:22:55;20.00;;;8.60;;
64459;SDS011;50828;53.756;21.140;2023-02-28T04:28:04;15.10;;;6.50;;
64459;SDS011;50828;53.756;21.140;2023-02-28T04:33:14;18.70;;;7.40;;
64459;SDS011;50828;53.756;21.140;2023-02-28T04:38:22;23.00;;;8.70;;
64459;SDS011;50828;53.756;21.140;2023-02-28T04:43:30;26.90;;;9.40;;
64459;SDS011;50828;53.756;21.140;2023-02-28T04:48:39;22.80;;;8.70;;
64459;SDS011;50828;53.756;21.140;2023-02-28T04:53:49;22.00;;;8.20;;
64459;SDS011;50828;53.756;21.140;2023-02-28T04:58:58;20.70;;;8.20;;
64459;SDS011;50828;53.756;21.140;2023-02-28T05:04:06;16.20;;;6.40;;
64459;SDS011;50828;53.756;21.140;2023-02-28T05:09:16;14.90;;;6.40;;
64459;SDS011;50828;53.756;21.140;2023-02-28T05:14:24;16.70;;;7.10;;
64459;SDS011;50828;53.756;21.140;2023-02-28T05:19:32;21.10;;;6.90;;
64459;SDS011;50828;53.756;21.140;2023-02-28T05:24:41;20.40;;;7.70;;
64459;SDS011;50828;53.756;21.140;2023-02-28T05:29:50;18.70;;;8.40;;
64459;SDS011;50828;53.756;21.140;2023-02-28T05:34:57;20.50;;;8.60;;
64459;SDS011;50828;53.756;21.140;2023-02-28T05:40:05;19.20;;;7.80;;
64459;SDS011;50828;53.756;21.140;2023-02-28T05:45:18;25.70;;;8.30;;
64459;SDS011;50828;53.756;21.140;2023-02-28T05:50:25;29.30;;;11.70;;
64459;SDS011;50828;53.756;21.140;2023-02-28T05:55:32;94.90;;;36.80;;
64459;SDS011;50828;53.756;21.140;2023-02-28T06:00:41;61.20;;;22.10;;
64459;SDS011;50828;53.756;21.140;2023-02-28T06:05:49;54.60;;;19.80;;
64459;SDS011;50828;53.756;21.140;2023-02-28T06:10:57;36.80;;;14.10;;
64459;SDS011;50828;53.756;21.140;2023-02-28T06:16:08;31.00;;;13.80;;
64459;SDS011;50828;53.756;21.140;2023-02-28T06:21:18;27.50;;;11.70;;
64459;SDS011;50828;53.756;21.140;2023-02-28T06:26:27;19.70;;;9.10;;
64459;SDS011;50828;53.756;21.140;2023-02-28T06:31:35;26.40;;;8.70;;
64459;SDS011;50828;53.756;21.140;2023-02-28T06:36:44;22.00;;;8.90;;
64459;SDS011;50828;53.756;21.140;2023-02-28T06:41:52;19.70;;;8.30;;
64459;SDS011;50828;53.756;21.140;2023-02-28T06:47:02;22.10;;;7.90;;
64459;SDS011;50828;53.756;21.140;2023-02-28T06:52:11;18.80;;;7.80;;
64459;SDS011;50828;53.756;21.140;2023-02-28T06:57:24;19.40;;;7.80;;
64459;SDS011;50828;53.756;21.140;2023-02-28T07:02:35;20.70;;;7.70;;
64459;SDS011;50828;53.756;21.140;2023-02-28T07:07:43;23.50;;;8.70;;
64459;SDS011;50828;53.756;21.140;2023-02-28T07:12:52;19.90;;;7.40;;
64459;SDS011;50828;53.756;21.140;2023-02-28T07:18:00;19.50;;;7.60;;
64459;SDS011;50828;53.756;21.140;2023-02-28T07:23:09;17.50;;;6.90;;
64459;SDS011;50828;53.756;21.140;2023-02-28T07:28:18;18.70;;;7.20;;
64459;SDS011;50828;53.756;21.140;2023-02-28T07:33:26;18.40;;;7.50;;
64459;SDS011;50828;53.756;21.140;2023-02-28T07:38:35;18.40;;;6.80;;
64459;SDS011;50828;53.756;21.140;2023-02-28T07:43:43;16.00;;;7.60;;
64459;SDS011;50828;53.756;21.140;2023-02-28T07:48:52;17.80;;;6.80;;
64459;SDS011;50828;53.756;21.140;2023-02-28T07:54:04;18.20;;;7.50;;
64459;SDS011;50828;53.756;21.140;2023-02-28T07:59:13;18.20;;;7.30;;
64459;SDS011;50828;53.756;21.140;2023-02-28T08:04:22;18.50;;;6.90;;
64459;SDS011;50828;53.756;21.140;2023-02-28T08:09:30;20.30;;;8.50;;
64459;SDS011;50828;53.756;21.140;2023-02-28T08:14:37;16.60;;;7.10;;
64459;SDS011;50828;53.756;21.140;2023-02-28T08:19:47;18.20;;;7.50;;
64459;SDS011;50828;53.756;21.140;2023-02-28T08:24:55;18.00;;;7.70;;
64459;SDS011;50828;53.756;21.140;2023-02-28T08:30:04;23.00;;;8.10;;
64459;SDS011;50828;53.756;21.140;2023-02-28T08:35:13;16.60;;;7.00;;
64459;SDS011;50828;53.756;21.140;2023-02-28T08:40:20;12.80;;;6.20;;
64459;SDS011;50828;53.756;21.140;2023-02-28T08:45:28;15.00;;;6.10;;
64459;SDS011;50828;53.756;21.140;2023-02-28T08:50:36;12.80;;;5.70;;
64459;SDS011;50828;53.756;21.140;2023-02-28T08:55:44;12.60;;;4.20;;
64459;SDS011;50828;53.756;21.140;2023-02-28T09:00:53;9.40;;;4.50;;
64459;SDS011;50828;53.756;21.140;2023-02-28T09:06:02;10.90;;;3.90;;
64459;SDS011;50828;53.756;21.140;2023-02-28T09:11:11;8.90;;;3.50;;
64459;SDS011;50828;53.756;21.140;2023-02-28T09:16:19;7.70;;;2.50;;
64459;SDS011;50828;53.756;21.140;2023-02-28T09:21:29;5.20;;;2.10;;
64459;SDS011;50828;53.756;21.140;2023-02-28T09:26:38;7.60;;;2.40;;
64459;SDS011;50828;53.756;21.140;2023-02-28T09:32:05;6.20;;;2.80;;
64459;SDS011;50828;53.756;21.140;2023-02-28T09:37:15;6.40;;;2.40;;
64459;SDS011;50828;53.756;21.140;2023-02-28T09:42:25;4.10;;;1.70;;
64459;SDS011;50828;53.756;21.140;2023-02-28T09:47:38;5.80;;;2.40;;
64459;SDS011;50828;53.756;21.140;2023-02-28T09:52:51;9.50;;;3.30;;
64459;SDS011;50828;53.756;21.140;2023-02-28T09:58:01;6.40;;;2.70;;
64459;SDS011;50828;53.756;21.140;2023-02-28T10:03:17;8.50;;;2.60;;
64459;SDS011;50828;53.756;21.140;2023-02-28T10:08:36;7.90;;;2.80;;
64459;SDS011;50828;53.756;21.140;2023-02-28T10:13:51;7.10;;;2.90;;
64459;SDS011;50828;53.756;21.140;2023-02-28T10:19:05;6.50;;;3.00;;
64459;SDS011;50828;53.756;21.140;2023-02-28T10:24:23;8.10;;;3.50;;
64459;SDS011;50828;53.756;21.140;2023-02-28T10:29:34;9.20;;;3.80;;
64459;SDS011;50828;53.756;21.140;2023-02-28T10:34:52;8.40;;;3.50;;
64459;SDS011;50828;53.756;21.140;2023-02-28T10:40:06;8.90;;;3.20;;
64459;SDS011;50828;53.756;21.140;2023-02-28T10:45:32;7.40;;;3.00;;
64459;SDS011;50828;53.756;21.140;2023-02-28T10:50:44;7.70;;;3.30;;
64459;SDS011;50828;53.756;21.140;2023-02-28T10:56:03;6.40;;;2.40;;
64459;SDS011;50828;53.756;21.140;2023-02-28T11:01:19;7.00;;;3.50;;
64459;SDS011;50828;53.756;21.140;2023-02-28T11:06:29;7.70;;;3.50;;
64459;SDS011;50828;53.756;21.140;2023-02-28T11:11:43;9.20;;;4.10;;
64459;SDS011;50828;53.756;21.140;2023-02-28T11:16:53;8.60;;;4.10;;
64459;SDS011;50828;53.756;21.140;2023-02-28T11:22:04;8.40;;;3.30;;
64459;SDS011;50828;53.756;21.140;2023-02-28T11:27:22;6.00;;;2.70;;
64459;SDS011;50828;53.756;21.140;2023-02-28T11:32:49;8.50;;;2.80;;
64459;SDS011;50828;53.756;21.140;2023-02-28T11:37:58;8.40;;;3.30;;
64459;SDS011;50828;53.756;21.140;2023-02-28T11:43:08;5.80;;;2.30;;
64459;SDS011;50828;53.756;21.140;2023-02-28T11:48:33;7.10;;;2.80;;
64459;SDS011;50828;53.756;21.140;2023-02-28T11:53:55;5.20;;;2.20;;
64459;SDS011;50828;53.756;21.140;2023-02-28T11:59:26;5.30;;;2.40;;
64459;SDS011;50828;53.756;21.140;2023-02-28T12:04:46;5.90;;;2.30;;
64459;SDS011;50828;53.756;21.140;2023-02-28T12:10:09;5.60;;;2.30;;
64459;SDS011;50828;53.756;21.140;2023-02-28T12:15:32;5.60;;;2.50;;
64459;SDS011;50828;53.756;21.140;2023-02-28T12:21:08;3.70;;;2.00;;
64459;SDS011;50828;53.756;21.140;2023-02-28T12:26:26;4.40;;;2.00;;
64459;SDS011;50828;53.756;21.140;2023-02-28T12:31:44;4.10;;;1.90;;
64459;SDS011;50828;53.756;21.140;2023-02-28T12:36:55;4.70;;;1.80;;
64459;SDS011;50828;53.756;21.140;2023-02-28T12:42:10;6.90;;;2.20;;
64459;SDS011;50828;53.756;21.140;2023-02-28T12:47:24;3.30;;;1.50;;
64459;SDS011;50828;53.756;21.140;2023-02-28T12:52:35;4.20;;;1.90;;
64459;SDS011;50828;53.756;21.140;2023-02-28T12:57:48;3.60;;;1.70;;
64459;SDS011;50828;53.756;21.140;2023-02-28T13:03:09;4.80;;;1.80;;
64459;SDS011;50828;53.756;21.140;2023-02-28T13:14:22;5.40;;;2.10;;
64459;SDS011;50828;53.756;21.140;2023-02-28T13:19:35;4.30;;;1.70;;
64459;SDS011;50828;53.756;21.140;2023-02-28T13:29:55;4.40;;;1.90;;
64459;SDS011;50828;53.756;21.140;2023-02-28T13:35:14;5.00;;;2.40;;
64459;SDS011;50828;53.756;21.140;2023-02-28T13:40:41;4.60;;;2.20;;
64459;SDS011;50828;53.756;21.140;2023-02-28T13:46:07;5.20;;;2.20;;
64459;SDS011;50828;53.756;21.140;2023-02-28T13:56:51;5.20;;;2.10;;
64459;SDS011;50828;53.756;21.140;2023-02-28T14:07:46;8.40;;;2.50;;
64459;SDS011;50828;53.756;21.140;2023-02-28T14:12:59;6.90;;;2.20;;
64459;SDS011;50828;53.756;21.140;2023-02-28T14:18:13;5.30;;;2.60;;
64459;SDS011;50828;53.756;21.140;2023-02-28T14:29:46;3.50;;;2.10;;
64459;SDS011;50828;53.756;21.140;2023-02-28T14:35:16;5.20;;;2.50;;
64459;SDS011;50828;53.756;21.140;2023-02-28T14:40:34;5.40;;;2.30;;
64459;SDS011;50828;53.756;21.140;2023-02-28T14:45:48;6.70;;;2.20;;
64459;SDS011;50828;53.756;21.140;2023-02-28T14:50:58;6.90;;;2.60;;
64459;SDS011;50828;53.756;21.140;2023-02-28T14:56:17;5.50;;;2.10;;
64459;SDS011;50828;53.756;21.140;2023-02-28T15:01:31;4.40;;;2.10;;
64459;SDS011;50828;53.756;21.140;2023-02-28T15:06:40;5.10;;;2.10;;
64459;SDS011;50828;53.756;21.140;2023-02-28T15:11:49;5.30;;;2.00;;
64459;SDS011;50828;53.756;21.140;2023-02-28T15:16:59;3.60;;;1.70;;
64459;SDS011;50828;53.756;21.140;2023-02-28T15:22:15;4.70;;;2.10;;
64459;SDS011;50828;53.756;21.140;2023-02-28T15:27:26;5.40;;;1.80;;
64459;SDS011;50828;53.756;21.140;2023-02-28T15:32:36;6.30;;;2.00;;
64459;SDS011;50828;53.756;21.140;2023-02-28T15:37:47;5.40;;;2.40;;
64459;SDS011;50828;53.756;21.140;2023-02-28T15:43:05;3.80;;;2.00;;
64459;SDS011;50828;53.756;21.140;2023-02-28T15:48:21;5.60;;;2.20;;
64459;SDS011;50828;53.756;21.140;2023-02-28T15:53:30;6.30;;;2.40;;
64459;SDS011;50828;53.756;21.140;2023-02-28T15:58:42;4.90;;;2.20;;
64459;SDS011;50828;53.756;21.140;2023-02-28T16:03:51;4.20;;;2.10;;
64459;SDS011;50828;53.756;21.140;2023-02-28T16:09:04;5.80;;;2.40;;
64459;SDS011;50828;53.756;21.140;2023-02-28T16:14:16;6.70;;;3.20;;
64459;SDS011;50828;53.756;21.140;2023-02-28T16:24:35;5.40;;;2.60;;
64459;SDS011;50828;53.756;21.140;2023-02-28T16:29:45;7.60;;;3.20;;
64459;SDS011;50828;53.756;21.140;2023-02-28T16:34:54;8.30;;;3.30;;
64459;SDS011;50828;53.756;21.140;2023-02-28T16:40:04;8.00;;;3.20;;
64459;SDS011;50828;53.756;21.140;2023-02-28T16:50:25;5.90;;;2.30;;
64459;SDS011;50828;53.756;21.140;2023-02-28T16:55:37;5.00;;;2.30;;
64459;SDS011;50828;53.756;21.140;2023-02-28T17:00:46;5.20;;;2.40;;
64459;SDS011;50828;53.756;21.140;2023-02-28T17:05:54;5.80;;;2.30;;
64459;SDS011;50828;53.756;21.140;2023-02-28T17:11:03;5.70;;;2.40;;
64459;SDS011;50828;53.756;21.140;2023-02-28T17:16:15;6.40;;;2.60;;
64459;SDS011;50828;53.756;21.140;2023-02-28T17:21:27;5.70;;;2.30;;
64459;SDS011;50828;53.756;21.140;2023-02-28T17:26:38;6.40;;;3.10;;
64459;SDS011;50828;53.756;21.140;2023-02-28T17:31:46;8.80;;;3.10;;
64459;SDS011;50828;53.756;21.140;2023-02-28T17:36:55;7.40;;;3.40;;
64459;SDS011;50828;53.756;21.140;2023-02-28T17:42:04;9.30;;;3.40;;
64459;SDS011;50828;53.756;21.140;2023-02-28T17:47:13;9.40;;;3.50;;
64459;SDS011;50828;53.756;21.140;2023-02-28T17:52:22;11.50;;;3.90;;
64459;SDS011;50828;53.756;21.140;2023-02-28T17:57:31;10.60;;;3.60;;
64459;SDS011;50828;53.756;21.140;2023-02-28T18:02:39;12.60;;;3.70;;
64459;SDS011;50828;53.756;21.140;2023-02-28T18:07:48;9.00;;;3.80;;
64459;SDS011;50828;53.756;21.140;2023-02-28T18:12:56;10.10;;;4.20;;
64459;SDS011;50828;53.756;21.140;2023-02-28T18:18:05;11.10;;;4.80;;
64459;SDS011;50828;53.756;21.140;2023-02-28T18:23:13;26.00;;;10.70;;
64459;SDS011;50828;53.756;21.140;2023-02-28T18:28:24;23.70;;;9.10;;
64459;SDS011;50828;53.756;21.140;2023-02-28T18:33:32;17.40;;;6.90;;
64459;SDS011;50828;53.756;21.140;2023-02-28T18:38:39;13.60;;;5.30;;
64459;SDS011;50828;53.756;21.140;2023-02-28T18:43:47;9.50;;;3.80;;
64459;SDS011;50828;53.756;21.140;2023-02-28T18:48:57;12.20;;;4.40;;
64459;SDS011;50828;53.756;21.140;2023-02-28T18:54:05;16.70;;;5.40;;
64459;SDS011;50828;53.756;21.140;2023-02-28T18:59:14;10.20;;;4.50;;
64459;SDS011;50828;53.756;21.140;2023-02-28T19:04:22;12.40;;;4.40;;
64459;SDS011;50828;53.756;21.140;2023-02-28T19:09:30;10.30;;;4.10;;
64459;SDS011;50828;53.756;21.140;2023-02-28T19:14:39;10.00;;;4.40;;
64459;SDS011;50828;53.756;21.140;2023-02-28T19:19:47;11.20;;;4.90;;
64459;SDS011;50828;53.756;21.140;2023-02-28T19:24:55;12.20;;;4.20;;
64459;SDS011;50828;53.756;21.140;2023-02-28T19:30:04;11.20;;;4.90;;
64459;SDS011;50828;53.756;21.140;2023-02-28T19:35:14;24.10;;;10.60;;
64459;SDS011;50828;53.756;21.140;2023-02-28T19:40:22;46.80;;;18.90;;
64459;SDS011;50828;53.756;21.140;2023-02-28T19:45:31;43.80;;;17.00;;
64459;SDS011;50828;53.756;21.140;2023-02-28T19:50:40;45.30;;;16.50;;
64459;SDS011;50828;53.756;21.140;2023-02-28T19:55:48;37.30;;;15.90;;
64459;SDS011;50828;53.756;21.140;2023-02-28T20:00:57;25.30;;;9.80;;
64459;SDS011;50828;53.756;21.140;2023-02-28T20:06:11;20.90;;;7.30;;
64459;SDS011;50828;53.756;21.140;2023-02-28T20:11:19;16.20;;;6.60;;
64459;SDS011;50828;53.756;21.140;2023-02-28T20:16:28;16.60;;;6.80;;
64459;SDS011;50828;53.756;21.140;2023-02-28T20:21:37;16.00;;;7.40;;
64459;SDS011;50828;53.756;21.140;2023-02-28T20:26:48;16.30;;;6.60;;
64459;SDS011;50828;53.756;21.140;2023-02-28T20:31:57;16.30;;;6.60;;
64459;SDS011;50828;53.756;21.140;2023-02-28T20:37:04;17.20;;;6.70;;
64459;SDS011;50828;53.756;21.140;2023-02-28T20:42:11;15.20;;;6.60;;
64459;SDS011;50828;53.756;21.140;2023-02-28T20:47:20;18.60;;;7.80;;
64459;SDS011;50828;53.756;21.140;2023-02-28T20:52:28;17.00;;;7.40;;
64459;SDS011;50828;53.756;21.140;2023-02-28T20:57:36;19.50;;;7.70;;
64459;SDS011;50828;53.756;21.140;2023-02-28T21:02:44;18.30;;;7.60;;
64459;SDS011;50828;53.756;21.140;2023-02-28T21:07:53;20.90;;;9.00;;
64459;SDS011;50828;53.756;21.140;2023-02-28T21:13:01;20.30;;;8.50;;
64459;SDS011;50828;53.756;21.140;2023-02-28T21:18:09;22.20;;;8.60;;
64459;SDS011;50828;53.756;21.140;2023-02-28T21:23:19;25.40;;;8.90;;
64459;SDS011;50828;53.756;21.140;2023-02-28T21:28:28;19.40;;;7.80;;
64459;SDS011;50828;53.756;21.140;2023-02-28T21:33:36;24.20;;;8.70;;
64459;SDS011;50828;53.756;21.140;2023-02-28T21:38:45;22.40;;;8.30;;
64459;SDS011;50828;53.756;21.140;2023-02-28T21:43:54;20.90;;;8.20;;
64459;SDS011;50828;53.756;21.140;2023-02-28T21:49:03;18.60;;;7.80;;
64459;SDS011;50828;53.756;21.140;2023-02-28T21:54:11;22.80;;;9.10;;
64459;SDS011;50828;53.756;21.140;2023-02-28T21:59:20;19.40;;;8.90;;
64459;SDS011;50828;53.756;21.140;2023-02-28T22:04:29;23.70;;;9.10;;
64459;SDS011;50828;53.756;21.140;2023-02-28T22:09:37;20.90;;;8.80;;
64459;SDS011;50828;53.756;21.140;2023-02-28T22:14:45;24.60;;;8.90;;
64459;SDS011;50828;53.756;21.140;2023-02-28T22:19:53;22.30;;;9.60;;
64459;SDS011;50828;53.756;21.140;2023-02-28T22:25:03;24.50;;;9.50;;
64459;SDS011;50828;53.756;21.140;2023-02-28T22:30:12;23.00;;;10.70;;
64459;SDS011;50828;53.756;21.140;2023-02-28T22:35:20;29.00;;;10.40;;
64459;SDS011;50828;53.756;21.140;2023-02-28T22:40:29;25.50;;;10.40;;
64459;SDS011;50828;53.756;21.140;2023-02-28T22:45:39;21.40;;;9.20;;
64459;SDS011;50828;53.756;21.140;2023-02-28T22:50:47;22.50;;;9.10;;
64459;SDS011;50828;53.756;21.140;2023-02-28T22:55:55;21.80;;;9.30;;
64459;SDS011;50828;53.756;21.140;2023-02-28T23:01:06;26.50;;;10.60;;
64459;SDS011;50828;53.756;21.140;2023-02-28T23:06:17;21.70;;;9.90;;
64459;SDS011;50828;53.756;21.140;2023-02-28T23:11:26;21.50;;;9.00;;
64459;SDS011;50828;53.756;21.140;2023-02-28T23:16:36;22.10;;;9.80;;
64459;SDS011;50828;53.756;21.140;2023-02-28T23:21:45;24.60;;;9.40;;
64459;SDS011;50828;53.756;21.140;2023-02-28T23:26:54;27.40;;;9.80;;
64459;SDS011;50828;53.756;21.140;2023-02-28T23:32:05;26.60;;;9.90;;
64459;SDS011;50828;53.756;21.140;2023-02-28T23:37:13;22.00;;;9.60;;
64459;SDS011;50828;53.756;21.140;2023-02-28T23:42:22;25.40;;;9.50;;
64459;SDS011;50828;53.756;21.140;2023-02-28T23:47:30;22.50;;;9.00;;
64459;SDS011;50828;53.756;21.140;2023-02-28T23:52:38;22.30;;;9.00;;
64459;SDS011;50828;53.756;21.140;2023-02-28T23:57:47;21.90;;;9.70;;
